Moffett Field, CA (94035)

5:33 AM PST on February 07, 2016 (GMT -0800)
Moffett Federal Air Field | | Change Station
CLOSE
Current Station
Airport
Location: Moffett NAS,
Elevation: 39 ft
Nearby Weather Stations

Elev 39 ft 37.41 °N, 122.05 °W | Updated 37 minutes ago

Clear
Clear
49 °F
Feels Like 49 °F
N
0
Wind Variable Wind from North

Today
High -- | Low -- °F
--% Chance of Precip.
Yesterday
High -- | Low -- °F
Precip. -- in
Pressure 30.29 in
Visibility 10.0 miles
Clouds Clear
Dew Point 41 °F
Humidity 74%
Rainfall 0.00 in
Snow Depth Not available.
7:06 AM 5:38 PM
Waning Crescent, 1% visible
METAR KNUQ 071256Z 00000KT 10SM CLR 09/05 A3028 RMK AO2 SLP255 T00940050
Pressure 30.29 in
Visibility 10.0 miles
Clouds Clear
Dew Point 41 °F
Humidity 74%
Rainfall 0.00 in
Snow Depth Not available.
7:06 AM 5:38 PM
Waning Crescent, 1% visible
METAR KNUQ 071256Z 00000KT 10SM CLR 09/05 A3028 RMK AO2 SLP255 T00940050

10-Day Weather Forecast

Almanac

Astronomy

Feb. 07, 2016 Rise Set
Actual Time
Civil Twilight
Nautical Twilight
Astronomical Twilight
Moon
Length of Visible Light
Length of Day
Tomorrow will be .
, % of the Moon is Illuminated

Today's Extremes

State Highs State Lows

Community

WunderPhotos

Upload Photos

1,891,190 photos uploaded!

WunderBlog® & News

Nearby

Air Quality

  Air Quality AQ Index Pollutant
Not available.

Snow Depth

Station Depth Elevation

Earthquake Activity

City Distance Mag. Time & Date
Minimum magnitude displayed is 2.5.

Coastal Water Temperatures

Place Temperature

Stations

Nearby Weather Stations

Station Location Temp. Windchill Dew Point Humidity Wind Precip. Elev Updated Type
                   

Watches & Warnings

There are currently no watches in effect.